Condiciones actuales en los principales Aeropuertos de España-Datos Metar

 

LEAL - Alicante
Actualización: 20/07/2018 00:30
Few Clouds
Few Clouds
 Viento del OSO
Viento: OSO 6 km/h
Temperatura: 24°C
Rocío: 22°C
Humedad: 89%
Barómetro: 1014 hPa
Nubosidad: Few Clouds
Visibilidad: 10 km
Cloud details: Few Clouds 457 m
2018/07/19 22:30 LEAL 192230Z 25003KT 9999 FEW015 24/22 Q1014 NOSIG
LEAB - Albacete
Actualización: 20/07/2018 00:00
Despejado
Despejado
 Viento del varies
Viento: varies 9 km/h
Temperatura: 25°C
Rocío: 0°C
Humedad: 19%
Barómetro: 1017 hPa
Resumen: Despejado
Visibilidad: greater than 10 km
2018/07/19 22:00 LEAB 192200Z VRB05KT CAVOK 25/M00 Q1017 NOSIG
LEAM - Almería
Actualización: 20/07/2018 00:30
Despejado
Despejado
 Viento del SSE
Viento: SSE 4 km/h
Temperatura: 22°C
Rocío: 20°C
Humedad: 88%
Barómetro: 1014 hPa
Resumen: Despejado
Visibilidad: greater than 10 km
2018/07/19 22:30 LEAM 192230Z AUTO 16002KT CAVOK 22/20 Q1014
 
LEAS - Asturias/Aviles
Actualización: 20/07/2018 00:30
Light drizzle, Muy nuboso
Light drizzle, Muy nuboso
 Viento del varies
Viento: varies 4 km/h
Temperatura: 17°C
Rocío: 17°C
Humedad: 100%
Barómetro: 1020 hPa
Resumen: Light Drizzle
Nubosidad: Mostly Cloudy
Visibilidad: 4 km
Cloud details: Few Clouds 122 m
Mostly Cloudy 305 m
2018/07/19 22:30 LEAS 192230Z VRB02KT 4000 -DZ FEW004 BKN010 17/17 Q1020 TEMPO RADZ BKN010
LEBZ - Badajoz/Talavera la Real
Actualización: 19/07/2018 21:00
NO Actualizado
Despejado
Despejado
 Viento del O
Viento: O 20 km/h
Temperatura: 29°C
Rocío: 11°C
Humedad: 33%
Barómetro: 1015 hPa
Resumen: Despejado
Visibilidad: greater than 10 km
2018/07/19 19:00 LEBZ 191900Z 28011KT CAVOK 29/11 Q1015
LEBL - Barcelona
Actualización: 20/07/2018 00:30
Despejado
Despejado
 Viento del OSO
Viento: OSO 13 km/h
Temperatura: 25°C
Rocío: 21°C
Humedad: 79%
Barómetro: 1015 hPa
Resumen: Despejado
Visibilidad: greater than 10 km
2018/07/19 22:30 LEBL 192230Z 24007KT CAVOK 25/21 Q1015 NOSIG
 
LEBB - Bilbao
Actualización: 20/07/2018 00:30
Mostly Cloudy
Mostly Cloudy
 Viento del varies
Viento: varies 4 km/h
Temperatura: 21°C
Rocío: 19°C
Humedad: 88%
Barómetro: 1019 hPa
Nubosidad: Mostly Cloudy
Visibilidad: 10 km
Cloud details: Partly Cloudy 732 m
Mostly Cloudy 914 m
2018/07/19 22:30 LEBB 192230Z VRB02KT 9999 SCT024 BKN030 21/19 Q1019 NOSIG
LEBG - Burgos/Villafría
Actualización: 20/07/2018 00:30
Cubierto
Cubierto
 Viento del NNE
Viento: NNE 22 km/h
Temperatura: 17°C
Rocío: 15°C
Humedad: 88%
Barómetro: 1020 hPa
Nubosidad: Cubierto
Visibilidad: 10 km
Cloud details: Cubierto 305 m
2018/07/19 22:30 LEBG 192230Z AUTO 03012KT 9999 OVC010/// 17/15 Q1020
LEBA - Córdoba
Actualización: 20/07/2018 00:30
Despejado
Despejado
 Viento del O
Viento: O 11 km/h
Temperatura: 26°C
Rocío: 11°C
Humedad: 39%
Barómetro: 1014 hPa
Nubosidad: Despejado
Visibilidad: 10 km
2018/07/19 22:30 LEBA 192230Z AUTO 26006KT 9999 NCD 26/11 Q1014
 
LEGE - Gerona
Actualización: 20/07/2018 00:30
Despejado
Despejado
 Viento del SSO
Viento: SSO 6 km/h
Temperatura: 22°C
Rocío: 21°C
Humedad: 94%
Barómetro: 1015 hPa
Resumen: Despejado
Visibilidad: greater than 10 km
2018/07/19 22:30 LEGE 192230Z 21003KT CAVOK 22/21 Q1015
LEGR - Granada
Actualización: 20/07/2018 00:30
Despejado
Despejado
 Viento del OSO
Viento: OSO 9 km/h
Temperatura: 26°C
Rocío: 5°C
Humedad: 26%
Barómetro: 1017 hPa
Resumen: Despejado
Visibilidad: greater than 10 km
2018/07/19 22:30 LEGR 192230Z AUTO 25005KT CAVOK 26/05 Q1017
GCHI - Hierro
Actualización: 20/07/2018 00:30
Mostly Cloudy
Mostly Cloudy
 Viento del N
Viento: N 33 km/h
Temperatura: 21°C
Rocío: 18°C
Humedad: 83%
Barómetro: 1019 hPa
Nubosidad: Mostly Cloudy
Visibilidad: 10 km
Cloud details: Mostly Cloudy 549 m
2018/07/19 22:30 GCHI 192230Z AUTO 35018KT 9999 BKN018/// 21/18 Q1019
 
LEIB - Ibiza
Actualización: 20/07/2018 00:30
Partly Cloudy
Partly Cloudy
 Viento del varies
Viento: varies 4 km/h
Temperatura: 25°C
Rocío: 22°C
Humedad: 83%
Barómetro: 1014 hPa
Nubosidad: Partly Cloudy
Visibilidad: 10 km
Cloud details: Partly Cloudy 396 m
2018/07/19 22:30 LEIB 192230Z VRB02KT 9999 SCT013 25/22 Q1014 NOSIG
LEJR - Jerez de la Frontera
Actualización: 20/07/2018 00:30
Despejado
Despejado
 Viento del S
Viento: S 7 km/h
Temperatura: 19°C
Rocío: 16°C
Humedad: 83%
Barómetro: 1016 hPa
Nubosidad: Despejado
Visibilidad: 10 km
2018/07/19 22:30 LEJR 192230Z AUTO 17004KT 9999 NCD 19/16 Q1016
LECO - A Coruña
Actualización: 20/07/2018 00:30
Mostly Cloudy
Mostly Cloudy
 Viento del N
Viento: N 9 km/h
Temperatura: 18°C
Rocío: 15°C
Humedad: 83%
Barómetro: 1021 hPa
Nubosidad: Mostly Cloudy
Visibilidad: 10 km
Cloud details: Few Clouds 549 m
Mostly Cloudy 914 m
2018/07/19 22:30 LECO 192230Z 36005KT 320V040 9999 FEW018 BKN030 18/15 Q1021 NOSIG
 
GCLA - La Palma
Actualización: 20/07/2018 00:30
Few Clouds
Few Clouds
 Viento del NNE
Viento: NNE 24 km/h
Temperatura: 22°C
Rocío: 17°C
Humedad: 73%
Barómetro: 1020 hPa
Nubosidad: Few Clouds
Visibilidad: 10 km
Cloud details: Few Clouds 792 m
2018/07/19 22:30 GCLA 192230Z AUTO 03013KT 9999 FEW026/// 22/17 Q1020
GCRR - Lanzarote
Actualización: 20/07/2018 00:30
Few Clouds
Few Clouds
 Viento del N
Viento: N 28 km/h
Temperatura: 22°C
Rocío: 18°C
Humedad: 78%
Barómetro: 1018 hPa
Nubosidad: Few Clouds
Visibilidad: 10 km
Cloud details: Few Clouds 610 m
2018/07/19 22:30 GCRR 192230Z 01015KT 9999 FEW020 22/18 Q1018
GCLP - Las Palmas
Actualización: 20/07/2018 00:30
Few Clouds
Few Clouds
 Viento del N
Viento: N 43 km/h
Temperatura: 22°C
Rocío: 17°C
Humedad: 73%
Barómetro: 1018 hPa
Nubosidad: Few Clouds
Visibilidad: 10 km
Cloud details: Few Clouds 610 m
2018/07/19 22:30 GCLP 192230Z 01023KT 9999 FEW020 22/17 Q1018 NOSIG
 
LELN - León
Actualización: 20/07/2018 00:30
Mostly Cloudy
Mostly Cloudy
 Viento del varies
Viento: varies 4 km/h
Temperatura: 15°C
Rocío: 11°C
Humedad: 77%
Barómetro: 1019 hPa
Nubosidad: Mostly Cloudy
Visibilidad: 10 km
Cloud details: Mostly Cloudy 1372 m
2018/07/19 22:30 LELN 192230Z AUTO VRB02KT 9999 BKN045 15/11 Q1019
LELO - Logroño
Actualización: 20/07/2018 00:30
Cubierto
Cubierto
 Viento del O
Viento: O 11 km/h
Temperatura: 21°C
Rocío: 18°C
Humedad: 83%
Barómetro: 1018 hPa
Nubosidad: Cubierto
Visibilidad: 10 km
Cloud details: Cubierto 1036 m
2018/07/19 22:30 LELO 192230Z AUTO 27006KT 230V300 9999 OVC034/// 21/18 Q1018
LECV - Madrid/Colmenar
Actualización: 19/07/2018 20:00
NO Actualizado
Despejado
Despejado
 Viento del SO
Viento: SO 20 km/h
Temperatura: 28°C
Rocío: -4°C
Humedad: 12%
Barómetro: 1017 hPa
Resumen: Despejado
Visibilidad: greater than 10 km
2018/07/19 18:00 LECV 191800Z 23011KT CAVOK 28/M04 Q1017
 
LEMD - Madrid/Barajas
Actualización: 20/07/2018 00:30
Despejado
Despejado
 Viento del OSO
Viento: OSO 19 km/h
Temperatura: 28°C
Rocío: 5°C
Humedad: 23%
Barómetro: 1015 hPa
Resumen: Despejado
Visibilidad: greater than 10 km
2018/07/19 22:30 LEMD 192230Z 24010KT CAVOK 28/05 Q1015 NOSIG
LEVS - Madrid/Cuatro Vientos
Actualización: 19/07/2018 23:30
NO Actualizado
Despejado
Despejado
 Viento del OSO
Viento: OSO 15 km/h
Temperatura: 23°C
Rocío: 7°C
Humedad: 36%
Barómetro: 1016 hPa
Resumen: Despejado
Visibilidad: greater than 10 km
2018/07/19 21:30 LEVS 192130Z 24008KT CAVOK 23/07 Q1016
LEGT - Madrid/Getafe
Actualización: 19/07/2018 21:00
NO Actualizado
Despejado
Despejado
 Viento del O
Viento: O 15 km/h
Temperatura: 31°C
Rocío: 5°C
Humedad: 19%
Barómetro: 1015 hPa
Resumen: Despejado
Visibilidad: greater than 10 km
2018/07/19 19:00 LEGT 191900Z 27008KT 230V310 CAVOK 31/05 Q1015
 
LETO - Madrid/Torrejón
Actualización: 20/07/2018 00:00
Despejado
Despejado
 Viento del O
Viento: O 11 km/h
Temperatura: 24°C
Rocío: 6°C
Humedad: 31%
Barómetro: 1016 hPa
Resumen: Despejado
Visibilidad: greater than 10 km
2018/07/19 22:00 LETO 192200Z 28006KT CAVOK 24/06 Q1016 NOSIG
LEMG - Málaga
Actualización: 20/07/2018 00:30
Despejado
Despejado
 Viento del N
Viento: N 2 km/h
Temperatura: 23°C
Rocío: 17°C
Humedad: 69%
Barómetro: 1015 hPa
Resumen: Despejado
Visibilidad: greater than 10 km
2018/07/19 22:30 LEMG 192230Z 36001KT CAVOK 23/17 Q1015 NOSIG
GEML - Melilla
Actualización: 20/07/2018 00:30
Despejado
Despejado
 Viento del varies
Viento: varies 2 km/h
Temperatura: 26°C
Rocío: 20°C
Humedad: 70%
Barómetro: 1015 hPa
Resumen: Despejado
Visibilidad: greater than 10 km
2018/07/19 22:30 GEML 192230Z AUTO VRB01KT CAVOK 26/20 Q1015
 
LEMH - Mahón
Actualización: 20/07/2018 00:30
Despejado
Despejado
 Viento del S
Viento: S 7 km/h
Temperatura: 24°C
Rocío: 20°C
Humedad: 78%
Barómetro: 1015 hPa
Resumen: Despejado
Visibilidad: greater than 10 km
2018/07/19 22:30 LEMH 192230Z 17004KT CAVOK 24/20 Q1015
LEMO - Morón de La Frontera
Actualización: 20/07/2018 00:00
Despejado
Despejado
 Viento del SSO
Viento: SSO 11 km/h
Temperatura: 21°C
Rocío: 14°C
Humedad: 64%
Barómetro: 1016 hPa
Resumen: Despejado
Visibilidad: greater than 10 km
2018/07/19 22:00 LEMO 192200Z 20006KT 170V270 CAVOK 21/14 Q1016 NOSIG
LERI - Murcia/Alcantarilla
Actualización: 19/07/2018 20:00
NO Actualizado
Despejado
Despejado
 Viento del SSE
Viento: SSE 15 km/h
Temperatura: 32°C
Heat Index: 34°C
Rocío: 19°C
Humedad: 46%
Barómetro: 1012 hPa
Resumen: Despejado
Visibilidad: greater than 10 km
2018/07/19 18:00 LERI 191800Z 15008KT 130V190 CAVOK 32/19 Q1012 NOSIG
 
LELC - Murcia/San Javier
Actualización: 20/07/2018 00:30
Despejado
Despejado
 Viento del varies
Viento: varies 4 km/h
Temperatura: 25°C
Rocío: 21°C
Humedad: 79%
Barómetro: 1014 hPa
Nubosidad: Despejado
Visibilidad: 10 km
2018/07/19 22:30 LELC 192230Z AUTO VRB02KT 9999 NCD 25/21 Q1014
LEPA - Palma de Mallorca
Actualización: 20/07/2018 00:30
Despejado
Despejado
 Viento del S
Viento: S 2 km/h
Temperatura: 24°C
Rocío: 20°C
Humedad: 78%
Barómetro: 1015 hPa
Resumen: Despejado
Visibilidad: greater than 10 km
2018/07/19 22:30 LEPA 192230Z 17001KT CAVOK 24/20 Q1015 NOSIG
LEPP - Pamplona
Actualización: 20/07/2018 00:30
Cubierto
Cubierto
 Viento del NO
Viento: NO 19 km/h
Temperatura: 20°C
Rocío: 16°C
Humedad: 78%
Barómetro: 1018 hPa
Nubosidad: Cubierto
Visibilidad: 9 km
Cloud details: Mostly Cloudy 701 m
Cubierto 853 m
2018/07/19 22:30 LEPP 192230Z AUTO 32010KT 9000 BKN023/// OVC028/// 20/16 Q1018
 
LERS - Reus
Actualización: 20/07/2018 00:30
Despejado
Despejado
 Viento del calm
Viento: Calma
Temperatura: 23°C
Rocío: 21°C
Humedad: 89%
Barómetro: 1015 hPa
Nubosidad: Despejado
Visibilidad: 10 km
2018/07/19 22:30 LERS 192230Z AUTO 00000KT 9999 NCD 23/21 Q1015
LERT - Rota
Actualización: 20/07/2018 00:00
Despejado
Despejado
 Viento del O
Viento: O 9 km/h
Temperatura: 21°C
Rocío: 18°C
Humedad: 83%
Barómetro: 1016 hPa
Resumen: Despejado
Visibilidad: greater than 10 km
2018/07/19 22:00 LERT 192200Z 27005KT CAVOK 21/18 Q1016 NOSIG
LELL - Sabadell
Actualización: 20/07/2018 00:30
Despejado
Despejado
 Viento del ONO
Viento: ONO 6 km/h
Temperatura: 24°C
Rocío: 18°C
Humedad: 69%
Barómetro: 1015 hPa
Nubosidad: Despejado
Visibilidad: 10 km
2018/07/19 22:30 LELL 192230Z AUTO 29003KT 270V330 9999 NCD 24/18 Q1015
 
LESA - Salamanca
Actualización: 20/07/2018 00:30
Despejado
Despejado
 Viento del varies
Viento: varies 4 km/h
Temperatura: 16°C
Rocío: 9°C
Humedad: 63%
Barómetro: 1018 hPa
Nubosidad: Despejado
Visibilidad: 6 km
2018/07/19 22:30 LESA 192230Z AUTO VRB02KT 6000 NCD 16/09 Q1018
LESO - San Sebastián
Actualización: 20/07/2018 00:30
Cubierto
Cubierto
 Viento del ONO
Viento: ONO 9 km/h
Temperatura: 23°C
Rocío: 20°C
Humedad: 83%
Barómetro: 1018 hPa
Nubosidad: Cubierto
Visibilidad: 10 km
Cloud details: Partly Cloudy 488 m
Mostly Cloudy 701 m
Cubierto 914 m
2018/07/19 22:30 LESO 192230Z AUTO 30005KT 240V350 9999 SCT016/// BKN023/// OVC030/// 23/20 Q1018
LEXJ - Santander
Actualización: 20/07/2018 00:30
Mostly Cloudy
Mostly Cloudy
 Viento del SSO
Viento: SSO 11 km/h
Temperatura: 19°C
Rocío: 19°C
Humedad: 100%
Barómetro: 1019 hPa
Nubosidad: Mostly Cloudy
Visibilidad: 6 km
Cloud details: Few Clouds 457 m
Mostly Cloudy 640 m
Mostly Cloudy 823 m
2018/07/19 22:30 LEXJ 192230Z AUTO 20006KT 6000 FEW015/// BKN021/// BKN027/// 19/19 Q1019
 
LEPA - Palma de Mallorca
Actualización: 20/07/2018 00:30
Despejado
Despejado
 Viento del S
Viento: S 2 km/h
Temperatura: 24°C
Rocío: 20°C
Humedad: 78%
Barómetro: 1015 hPa
Resumen: Despejado
Visibilidad: greater than 10 km
2018/07/19 22:30 LEPA 192230Z 17001KT CAVOK 24/20 Q1015 NOSIG
LEPP - Pamplona
Actualización: 20/07/2018 00:30
Cubierto
Cubierto
 Viento del NO
Viento: NO 19 km/h
Temperatura: 20°C
Rocío: 16°C
Humedad: 78%
Barómetro: 1018 hPa
Nubosidad: Cubierto
Visibilidad: 9 km
Cloud details: Mostly Cloudy 701 m
Cubierto 853 m
2018/07/19 22:30 LEPP 192230Z AUTO 32010KT 9000 BKN023/// OVC028/// 20/16 Q1018
LEST - Santiago de Compostela
Actualización: 20/07/2018 00:30
Mostly Cloudy
Mostly Cloudy
 Viento del NNE
Viento: NNE 17 km/h
Temperatura: 16°C
Rocío: 15°C
Humedad: 94%
Barómetro: 1021 hPa
Nubosidad: Mostly Cloudy
Visibilidad: 10 km
Cloud details: Few Clouds 305 m
Mostly Cloudy 975 m
2018/07/19 22:30 LEST 192230Z 02009KT 350V050 9999 FEW010 BKN032 16/15 Q1021 NOSIG
 
LEZL - Sevilla
Actualización: 20/07/2018 00:30
Despejado
Despejado
 Viento del SSO
Viento: SSO 11 km/h
Temperatura: 23°C
Rocío: 13°C
Humedad: 53%
Barómetro: 1015 hPa
Resumen: Despejado
Visibilidad: greater than 10 km
2018/07/19 22:30 LEZL 192230Z 20006KT CAVOK 23/13 Q1015 NOSIG
GCXO - Tenerife
Actualización: 20/07/2018 00:30
Mostly Cloudy
Mostly Cloudy
 Viento del O
Viento: O 26 km/h
Temperatura: 17°C
Rocío: 16°C
Humedad: 94%
Barómetro: 1021 hPa
Nubosidad: Mostly Cloudy
Visibilidad: 10 km
Cloud details: Mostly Cloudy 122 m
2018/07/19 22:30 GCXO 192230Z AUTO 28014KT 9999 BKN004/// 17/16 Q1021
GCTS - Tenerife-Sur
Actualización: 20/07/2018 00:30
Despejado
Despejado
 Viento del ENE
Viento: ENE 22 km/h
Temperatura: 22°C
Rocío: 17°C
Humedad: 73%
Barómetro: 1018 hPa
Resumen: Despejado
Visibilidad: greater than 10 km
2018/07/19 22:30 GCTS 192230Z 07012KT CAVOK 22/17 Q1018 NOSIG
 
LEVC - Valencia
Actualización: 20/07/2018 00:30
Partly Cloudy
Partly Cloudy
 Viento del ENE
Viento: ENE 9 km/h
Temperatura: 26°C
Rocío: 21°C
Humedad: 74%
Barómetro: 1015 hPa
Nubosidad: Partly Cloudy
Visibilidad: 10 km
Cloud details: Partly Cloudy 640 m
2018/07/19 22:30 LEVC 192230Z 06005KT 9999 SCT021 26/21 Q1015 NOSIG
LEVD - Valladolid
Actualización: 19/07/2018 21:30
NO Actualizado
Despejado
Despejado
 Viento del O
Viento: O 11 km/h
Temperatura: 24°C
Rocío: 1°C
Humedad: 22%
Barómetro: 1017 hPa
Resumen: Despejado
Visibilidad: greater than 10 km
2018/07/19 19:30 LEVD 191930Z 27006KT 240V300 CAVOK 24/01 Q1017
LEVX - Vigo
Actualización: 20/07/2018 00:30
Mostly Cloudy
Mostly Cloudy
 Viento del NNE
Viento: NNE 17 km/h
Temperatura: 18°C
Rocío: 15°C
Humedad: 83%
Barómetro: 1019 hPa
Nubosidad: Mostly Cloudy
Visibilidad: 10 km
Cloud details: Few Clouds 792 m
Mostly Cloudy 975 m
2018/07/19 22:30 LEVX 192230Z 02009KT 320V060 9999 FEW026 BKN032 18/15 Q1019 NOSIG
 
LEVT - Vitoria
Actualización: 20/07/2018 00:30
Mostly Cloudy
Mostly Cloudy
 Viento del varies
Viento: varies 4 km/h
Temperatura: 18°C
Rocío: 15°C
Humedad: 83%
Barómetro: 1020 hPa
Nubosidad: Mostly Cloudy
Visibilidad: 10 km
Cloud details: Few Clouds 244 m
Mostly Cloudy 549 m
2018/07/19 22:30 LEVT 192230Z VRB02KT 9999 FEW008 BKN018 18/15 Q1020
LEZG - Zaragoza
Actualización: 20/07/2018 00:30
Few Clouds
Few Clouds
 Viento del NO
Viento: NO 30 km/h
Temperatura: 23°C
Rocío: 17°C
Humedad: 69%
Barómetro: 1015 hPa
Nubosidad: Few Clouds
Visibilidad: 10 km
Cloud details: Few Clouds 1524 m
2018/07/19 22:30 LEZG 192230Z 31016KT 280V340 9999 FEW050 23/17 Q1015

La estación de MeteoMurcia.com, publica sus datos en los siguientes proyectos:

Meteoclimatic www.awekas.at

W3Counter
Web Analytics